Time;durP1;ratioP1;P1;durP2;ratioP2;P2;SDS_P1;SDS_P2;PMS_P1;PMS_P2;Temp;Humidity;BMP_temperature;BMP_pressure;BME280_temperature;BME280_humidity;BME280_pressure;Samples;Min_cycle;Max_cycle;Signal;HPM_P1;HPM_P2
2024/02/18 00:00:09;;;;;;;10.93;8.60;;;;;;;8.82;72.75;98297.34;4899735;29;20048;-80
2024/02/18 00:02:38;;;;;;;11.05;8.55;;;;;;;8.80;72.92;98301.84;4899577;29;20048;-79
2024/02/18 00:05:07;;;;;;;10.30;8.10;;;;;;;8.78;73.07;98303.75;4899601;29;20060;-80
2024/02/18 00:07:36;;;;;;;10.40;7.70;;;;;;;8.81;72.95;98303.47;4899656;29;20053;-80
2024/02/18 00:10:05;;;;;;;11.48;7.90;;;;;;;8.80;72.81;98299.22;4899135;29;20066;-80
2024/02/18 00:12:33;;;;;;;10.80;7.68;;;;;;;8.75;72.47;98304.81;4899239;29;20116;-80
2024/02/18 00:15:01;;;;;;;10.75;8.52;;;;;;;8.70;72.90;98306.16;4899261;29;20077;-80
2024/02/18 00:17:31;;;;;;;12.25;7.93;;;;;;;8.68;73.43;98308.91;4900764;29;20135;-80
2024/02/18 00:20:00;;;;;;;11.05;8.25;;;;;;;8.72;73.56;98309.44;4900195;29;20056;-79
2024/02/18 00:22:28;;;;;;;12.23;8.20;;;;;;;8.73;73.24;98317.13;4900008;29;20072;-80
2024/02/18 00:24:56;;;;;;;12.38;7.45;;;;;;;8.76;73.31;98310.84;4899977;29;20143;-80
2024/02/18 00:27:24;;;;;;;11.18;8.05;;;;;;;8.82;73.55;98307.75;4899092;29;20057;-80
2024/02/18 00:29:52;;;;;;;12.77;8.95;;;;;;;8.77;73.27;98313.34;4906395;29;20520;-80
2024/02/18 00:32:20;;;;;;;10.80;7.70;;;;;;;8.74;73.56;98308.38;4917707;29;20488;-80
2024/02/18 00:34:50;;;;;;;12.40;8.57;;;;;;;8.66;73.29;98303.81;4917987;29;20059;-80
2024/02/18 00:37:19;;;;;;;10.45;8.30;;;;;;;8.57;73.52;98296.78;4915052;29;20489;-80
2024/02/18 00:39:47;;;;;;;10.45;8.00;;;;;;;8.52;73.57;98298.91;4903454;29;20436;-79
2024/02/18 00:42:15;;;;;;;9.82;7.53;;;;;;;8.50;73.55;98295.63;4903019;29;20077;-79
2024/02/18 00:44:44;;;;;;;9.85;7.47;;;;;;;8.49;73.69;98293.97;4902666;29;20528;-79
2024/02/18 00:47:12;;;;;;;11.40;8.38;;;;;;;8.50;73.86;98295.63;4919218;29;20716;-79
2024/02/18 00:49:40;;;;;;;11.75;8.07;;;;;;;8.52;74.09;98298.91;4921554;29;20075;-79
2024/02/18 00:52:11;;;;;;;11.88;7.97;;;;;;;8.61;75.66;98295.53;4921526;29;20104;-79
2024/02/18 00:54:39;;;;;;;10.52;7.05;;;;;;;8.66;74.24;98290.81;4921748;29;20056;-79
2024/02/18 00:57:08;;;;;;;10.20;7.97;;;;;;;8.65;74.59;98294.34;4929590;29;20055;-80
2024/02/18 00:59:36;;;;;;;11.52;7.45;;;;;;;8.68;75.42;98295.03;4941312;29;20059;-79
2024/02/18 01:02:04;;;;;;;9.98;8.25;;;;;;;8.73;75.27;98296.31;4925162;29;20060;-79
2024/02/18 01:04:32;;;;;;;11.25;8.50;;;;;;;8.77;74.54;98291.69;4912802;29;20077;-80
2024/02/18 01:07:01;;;;;;;10.15;8.10;;;;;;;8.79;75.74;98297.56;4903530;29;20049;-79
2024/02/18 01:09:31;;;;;;;11.45;7.63;;;;;;;8.84;76.07;98300.63;4920557;29;20055;-80
2024/02/18 01:12:02;;;;;;;12.90;7.82;;;;;;;8.84;75.60;98300.63;4922325;29;20060;-79
2024/02/18 01:14:30;;;;;;;9.27;7.25;;;;;;;8.87;74.85;98297.75;4921963;29;20055;-79
2024/02/18 01:16:58;;;;;;;11.27;8.05;;;;;;;8.83;73.90;98285.94;4907008;29;20152;-79
2024/02/18 01:19:27;;;;;;;11.82;7.75;;;;;;;8.78;73.48;98295.94;4902368;29;20052;-79
2024/02/18 01:21:55;;;;;;;9.63;7.53;;;;;;;8.75;73.42;98297.03;4906624;29;20048;-79
2024/02/18 01:24:24;;;;;;;9.70;7.07;;;;;;;8.70;73.50;98301.75;4920986;29;20055;-79
2024/02/18 01:26:54;;;;;;;12.45;7.63;;;;;;;8.65;73.57;98301.34;4920540;29;20056;-79
2024/02/18 01:29:22;;;;;;;10.25;7.63;;;;;;;8.64;73.79;98300.50;4908008;29;20063;-80
2024/02/18 01:31:50;;;;;;;10.48;8.10;;;;;;;8.61;73.61;98290.34;4920913;29;20056;-79
2024/02/18 01:34:19;;;;;;;9.75;7.68;;;;;;;8.59;73.82;98302.69;4916377;29;20497;-80
2024/02/18 01:36:47;;;;;;;11.95;7.78;;;;;;;8.60;73.55;98290.50;4906155;29;20056;-79
2024/02/18 01:39:15;;;;;;;8.80;7.03;;;;;;;8.57;73.60;98291.59;4920697;29;20048;-80
2024/02/18 01:41:43;;;;;;;13.88;7.25;;;;;;;8.50;73.84;98295.63;4920499;29;20135;-80
2024/02/18 01:44:13;;;;;;;10.38;7.13;;;;;;;8.47;74.03;98290.69;4904966;29;20063;-79
2024/02/18 01:46:42;;;;;;;10.95;7.60;;;;;;;8.47;73.84;98289.88;4913901;29;20052;-79
2024/02/18 01:49:12;;;;;;;10.27;7.38;;;;;;;8.43;73.77;98289.28;4919946;29;20103;-79
2024/02/18 01:51:40;;;;;;;10.85;7.72;;;;;;;8.45;74.69;98289.97;4920675;29;20429;-79
2024/02/18 01:54:09;;;;;;;11.00;7.00;;;;;;;8.48;74.59;98292.31;4910626;29;20048;-79
2024/02/18 01:56:39;;;;;;;13.13;8.18;;;;;;;8.50;73.95;98284.41;4921764;29;20080;-79
2024/02/18 01:59:07;;;;;;;10.02;7.03;;;;;;;8.49;73.78;98278.38;4922277;29;20437;-80
2024/02/18 02:01:38;;;;;;;10.32;6.93;;;;;;;8.50;73.76;98280.00;4934441;29;20111;-79
2024/02/18 02:04:07;;;;;;;13.43;8.60;;;;;;;8.51;73.57;98271.28;4926710;29;20063;-80
2024/02/18 02:06:37;;;;;;;10.95;7.40;;;;;;;8.49;73.68;98270.56;4920521;29;20048;-80
2024/02/18 02:09:07;;;;;;;9.57;7.00;;;;;;;8.49;74.13;98267.97;4903238;29;20116;-79
2024/02/18 02:11:37;;;;;;;12.48;7.35;;;;;;;8.53;74.03;98269.38;4901261;29;20108;-79
2024/02/18 02:14:07;;;;;;;10.75;7.72;;;;;;;8.58;74.58;98269.81;4901050;29;20060;-79
2024/02/18 02:16:37;;;;;;;9.43;7.78;;;;;;;8.59;74.15;98263.66;4900763;29;20144;-80
2024/02/18 02:19:07;;;;;;;8.30;5.72;;;;;;;8.62;75.75;98271.19;4911072;29;20052;-79
2024/02/18 02:21:36;;;;;;;10.07;7.18;;;;;;;8.69;74.86;98268.91;4901663;29;20113;-79
2024/02/18 02:24:06;;;;;;;11.43;8.05;;;;;;;8.68;74.09;98272.47;4901294;29;20049;-79
2024/02/18 02:26:39;;;;;;;10.45;7.18;;;;;;;8.65;74.02;98272.72;4901505;29;20056;-79
2024/02/18 02:29:13;;;;;;;13.13;8.32;;;;;;;8.65;74.33;98267.50;4900451;29;20128;-79
2024/02/18 02:31:44;;;;;;;12.73;7.60;;;;;;;8.65;74.69;98268.34;4900482;29;20048;-80
2024/02/18 02:34:13;;;;;;;9.88;7.45;;;;;;;8.70;74.23;98265.34;4901421;29;20049;-80
2024/02/18 02:36:43;;;;;;;12.98;6.45;;;;;;;8.70;73.95;98264.53;4901177;29;20048;-79
2024/02/18 02:39:13;;;;;;;10.00;6.95;;;;;;;8.71;74.69;98264.41;4900403;29;20055;-79
2024/02/18 02:41:41;;;;;;;7.90;6.03;;;;;;;8.77;75.07;98263.06;4905748;29;20052;-79
2024/02/18 02:44:14;;;;;;;8.43;7.53;;;;;;;8.81;74.38;98265.28;4916628;29;20548;-79
2024/02/18 02:46:48;;;;;;;11.20;8.35;;;;;;;8.77;73.97;98268.28;4916270;29;20059;-80
2024/02/18 02:49:18;;;;;;;10.55;8.90;;;;;;;8.74;74.28;98261.53;4918915;29;20099;-79
2024/02/18 02:51:49;;;;;;;12.13;8.65;;;;;;;8.76;75.56;98258.81;4919703;29;20131;-79
2024/02/18 02:54:21;;;;;;;10.50;8.52;;;;;;;8.74;74.86;98251.13;4919342;29;20423;-79
2024/02/18 02:56:55;;;;;;;14.90;9.32;;;;;;;8.71;74.32;98260.97;4919329;29;20052;-79
2024/02/18 02:59:30;;;;;;;13.13;8.98;;;;;;;8.72;75.74;98260.03;4917098;29;20143;-79
2024/02/18 03:01:59;;;;;;;11.23;8.90;;;;;;;8.76;74.83;98256.22;4918362;29;20059;-79
2024/02/18 03:04:28;;;;;;;13.80;10.43;;;;;;;8.75;74.36;98251.97;4918625;29;20052;-80
2024/02/18 03:06:58;;;;;;;12.40;9.32;;;;;;;8.71;74.14;98246.19;4919058;29;20108;-80
2024/02/18 03:09:26;;;;;;;11.73;9.00;;;;;;;8.68;74.13;98248.22;4906608;29;20048;-79
2024/02/18 03:11:55;;;;;;;12.32;9.25;;;;;;;8.64;73.93;98242.47;4900117;29;20076;-80
2024/02/18 03:14:25;;;;;;;12.77;8.07;;;;;;;8.60;74.05;98243.66;4916775;29;20052;-80
2024/02/18 03:16:56;;;;;;;14.07;8.10;;;;;;;8.57;74.12;98242.16;4921859;29;20115;-80
2024/02/18 03:19:26;;;;;;;12.50;7.50;;;;;;;8.54;74.05;98238.97;4921278;29;20052;-80
2024/02/18 03:21:58;;;;;;;10.30;7.95;;;;;;;8.51;74.14;98240.06;4913393;29;20090;-80
2024/02/18 03:24:28;;;;;;;9.82;7.15;;;;;;;8.49;73.99;98239.38;4909061;29;20131;-80
2024/02/18 03:26:56;;;;;;;9.45;7.25;;;;;;;8.48;73.96;98242.91;4900272;29;20055;-79
2024/02/18 03:29:27;;;;;;;8.98;7.05;;;;;;;8.49;73.75;98246.34;4899805;29;20055;-79
2024/02/18 03:31:57;;;;;;;9.43;7.47;;;;;;;8.47;73.96;98240.44;4900126;29;20056;-79
2024/02/18 03:34:26;;;;;;;10.02;6.72;;;;;;;8.44;73.80;98234.56;4917611;29;20500;-79
2024/02/18 03:36:55;;;;;;;9.93;7.10;;;;;;;8.43;73.86;98237.28;4932798;29;20072;-80
2024/02/18 03:39:24;;;;;;;8.32;6.80;;;;;;;8.42;74.10;98226.06;4936630;29;20062;-79
2024/02/18 03:41:53;;;;;;;9.27;6.65;;;;;;;8.45;74.25;98230.97;4926724;29;20079;-80
2024/02/18 03:44:22;;;;;;;11.65;7.13;;;;;;;8.48;74.17;98235.09;4922689;29;20052;-80
2024/02/18 03:46:52;;;;;;;8.93;7.53;;;;;;;8.48;73.92;98232.50;4922349;29;20051;-80
2024/02/18 03:49:21;;;;;;;12.43;7.97;;;;;;;8.44;74.00;98229.34;4920361;29;20575;-79
2024/02/18 03:51:50;;;;;;;9.70;7.85;;;;;;;8.43;73.87;98232.06;4918902;29;20509;-79
2024/02/18 03:54:19;;;;;;;11.43;7.07;;;;;;;8.41;73.93;98231.38;4913685;29;20112;-80
2024/02/18 03:56:49;;;;;;;10.23;7.82;;;;;;;8.40;74.10;98232.31;4907587;29;20052;-79
2024/02/18 03:59:18;;;;;;;10.38;7.25;;;;;;;8.38;74.52;98223.81;4920428;29;20052;-79
2024/02/18 04:01:47;;;;;;;8.52;6.50;;;;;;;8.40;74.64;98221.91;4929140;29;20063;-81
2024/02/18 04:04:19;;;;;;;9.00;7.18;;;;;;;8.43;74.58;98226.88;4932680;29;20116;-80
2024/02/18 04:06:48;;;;;;;11.13;7.72;;;;;;;8.41;74.86;98220.97;4931940;29;20477;-80
2024/02/18 04:09:17;;;;;;;8.63;7.00;;;;;;;8.38;74.60;98216.00;4928905;29;20048;-80
2024/02/18 04:11:46;;;;;;;10.32;7.47;;;;;;;8.38;74.57;98219.44;4913938;29;20056;-80
2024/02/18 04:14:18;;;;;;;9.75;6.68;;;;;;;8.39;74.38;98217.63;4912913;29;20076;-80
2024/02/18 04:16:47;;;;;;;11.93;7.43;;;;;;;8.38;74.36;98219.44;4919985;29;20108;-80
2024/02/18 04:19:16;;;;;;;8.77;6.78;;;;;;;8.42;74.45;98217.44;4918331;29;20060;-80
2024/02/18 04:21:46;;;;;;;9.93;6.90;;;;;;;8.47;74.54;98217.88;4918035;29;20052;-80
2024/02/18 04:24:15;;;;;;;11.20;7.40;;;;;;;8.49;73.59;98218.56;4918167;29;20517;-80
2024/02/18 04:26:44;;;;;;;11.40;7.50;;;;;;;8.46;73.69;98211.00;4918121;29;20501;-80
2024/02/18 04:29:15;;;;;;;11.35;7.68;;;;;;;8.40;73.54;98212.34;4917970;29;20044;-80
2024/02/18 04:31:44;;;;;;;10.13;7.10;;;;;;;8.37;73.48;98209.16;4905731;29;20056;-79
2024/02/18 04:34:14;;;;;;;10.27;7.15;;;;;;;8.33;73.66;98210.34;4900909;29;20056;-80
2024/02/18 04:36:47;;;;;;;10.20;7.47;;;;;;;8.28;73.76;98212.50;4911999;29;20045;-79
2024/02/18 04:39:16;;;;;;;9.38;7.50;;;;;;;8.25;73.66;98216.19;4899649;29;20057;-79
2024/02/18 04:41:44;;;;;;;9.95;7.07;;;;;;;8.19;73.48;98212.31;4897997;29;20066;-79
2024/02/18 04:44:12;;;;;;;9.15;6.22;;;;;;;8.14;73.69;98217.09;4897667;29;20044;-78
2024/02/18 04:46:40;;;;;;;10.50;7.22;;;;;;;8.10;73.71;98213.09;4911254;29;20056;-79
2024/02/18 04:49:07;;;;;;;9.23;7.22;;;;;;;8.03;74.01;98215.38;4916511;29;20134;-79
2024/02/18 04:51:35;;;;;;;8.77;6.38;;;;;;;7.96;74.16;98213.38;4917398;29;20062;-79
2024/02/18 04:54:03;;;;;;;11.80;6.22;;;;;;;7.93;74.14;98208.44;4916577;29;20056;-79
2024/02/18 04:56:32;;;;;;;9.25;6.40;;;;;;;7.89;74.37;98212.25;4898539;29;20120;-79
2024/02/18 04:59:00;;;;;;;8.77;6.35;;;;;;;7.91;74.79;98218.13;4899124;29;20080;-79
2024/02/18 05:01:27;;;;;;;7.88;6.18;;;;;;;7.94;74.85;98204.91;4903295;29;20060;-79
2024/02/18 05:03:55;;;;;;;7.85;6.28;;;;;;;7.91;74.30;98200.78;4897994;29;20052;-78
2024/02/18 05:06:23;;;;;;;6.75;5.90;;;;;;;7.88;74.43;98205.41;4897911;29;20848;-79
2024/02/18 05:08:50;;;;;;;7.65;6.03;;;;;;;7.86;74.47;98209.91;4898587;29;20048;-79
2024/02/18 05:11:18;;;;;;;9.63;6.35;;;;;;;7.83;74.49;98208.38;4897313;29;20056;-78
2024/02/18 05:13:47;;;;;;;10.65;6.60;;;;;;;7.84;74.93;98207.41;4897587;29;20056;-79
2024/02/18 05:16:14;;;;;;;12.13;7.35;;;;;;;7.89;75.36;98197.47;4906562;29;20056;-79
2024/02/18 05:18:46;;;;;;;10.15;6.60;;;;;;;7.95;75.24;98201.34;4916741;29;20052;-78
2024/02/18 05:21:14;;;;;;;9.10;6.78;;;;;;;7.91;74.15;98200.78;4898486;29;20056;-79
2024/02/18 05:23:42;;;;;;;14.27;8.10;;;;;;;7.78;74.43;98195.78;4899167;29;20167;-78
2024/02/18 05:26:10;;;;;;;9.93;6.63;;;;;;;7.67;74.62;98202.78;4920066;29;20055;-78
2024/02/18 05:28:37;;;;;;;9.32;6.32;;;;;;;7.60;74.75;98197.25;4934731;29;20052;-78
2024/02/18 05:31:22;;;;;;;9.18;6.55;;;;;;;7.58;75.41;98199.13;4932774;29;20064;-79
2024/02/18 05:33:49;;;;;;;7.75;6.32;;;;;;;7.57;74.53;98189.72;4920494;29;20081;-78
2024/02/18 05:36:17;;;;;;;8.80;6.45;;;;;;;7.55;74.79;98195.03;4903302;29;20108;-79
2024/02/18 05:38:45;;;;;;;9.10;6.80;;;;;;;7.53;74.34;98190.91;4912213;29;20055;-78
2024/02/18 05:41:13;;;;;;;8.00;5.80;;;;;;;7.50;74.77;98185.94;4915401;29;20108;-78
2024/02/18 05:43:40;;;;;;;7.45;6.07;;;;;;;7.47;74.73;98192.22;4920563;29;20052;-79
2024/02/18 05:46:10;;;;;;;10.55;7.55;;;;;;;7.39;74.92;98190.25;4911987;29;20112;-79
2024/02/18 05:48:38;;;;;;;10.98;7.32;;;;;;;7.37;74.68;98188.72;4901179;29;20052;-79
2024/02/18 05:51:06;;;;;;;10.02;7.45;;;;;;;7.33;74.79;98188.13;4900477;29;20080;-79
2024/02/18 05:53:34;;;;;;;11.05;6.32;;;;;;;7.31;74.79;98182.22;4902531;29;20053;-79
2024/02/18 05:56:02;;;;;;;10.38;6.80;;;;;;;7.27;74.66;98180.81;4907720;29;20128;-79
2024/02/18 05:58:29;;;;;;;12.23;7.07;;;;;;;7.21;75.12;98186.50;4919783;29;20056;-78
2024/02/18 06:00:57;;;;;;;9.40;6.78;;;;;;;7.20;75.28;98179.66;4915569;29;20052;-79
2024/02/18 06:03:26;;;;;;;9.00;6.95;;;;;;;7.21;75.05;98181.31;4919664;29;20142;-79
2024/02/18 06:05:54;;;;;;;10.25;7.00;;;;;;;7.21;75.25;98182.16;4905488;29;20064;-79
2024/02/18 06:08:22;;;;;;;11.23;7.97;;;;;;;7.24;75.28;98186.28;4905884;29;20079;-78
2024/02/18 06:10:49;;;;;;;10.55;7.68;;;;;;;7.26;75.02;98181.78;4919104;29;20143;-79
2024/02/18 06:13:17;;;;;;;14.90;8.70;;;;;;;7.29;74.91;98172.91;4919568;29;20060;-79
2024/02/18 06:15:44;;;;;;;16.27;8.40;;;;;;;7.29;74.67;98178.13;4918513;29;20108;-79
2024/02/18 06:18:12;;;;;;;12.73;7.95;;;;;;;7.26;74.66;98184.38;4919154;29;20527;-78
2024/02/18 06:20:41;;;;;;;13.55;8.52;;;;;;;7.25;74.48;98182.72;4919312;29;20140;-79
2024/02/18 06:23:09;;;;;;;12.02;8.63;;;;;;;7.23;74.40;98175.03;4917543;29;20524;-79
2024/02/18 06:25:37;;;;;;;13.70;8.35;;;;;;;7.19;74.35;98173.66;4915522;29;20052;-79
2024/02/18 06:28:08;;;;;;;16.23;8.13;;;;;;;7.15;74.40;98172.25;4898970;29;20103;-79
2024/02/18 06:30:36;;;;;;;11.93;8.20;;;;;;;7.11;74.02;98177.81;4903398;29;20051;-78
2024/02/18 06:33:04;;;;;;;14.88;8.65;;;;;;;7.00;74.57;98174.28;4918791;29;20055;-79
2024/02/18 06:35:32;;;;;;;13.57;8.20;;;;;;;6.94;74.62;98169.56;4926245;29;20052;-79
2024/02/18 06:38:01;;;;;;;15.05;9.48;;;;;;;6.87;74.96;98168.41;4925946;29;20079;-79
2024/02/18 06:40:28;;;;;;;13.10;8.70;;;;;;;6.84;75.07;98162.63;4927508;29;20519;-79
2024/02/18 06:42:57;;;;;;;18.73;10.68;;;;;;;6.80;75.21;98162.06;4921091;29;20147;-79
2024/02/18 06:45:24;;;;;;;15.02;8.88;;;;;;;6.80;75.40;98162.88;4918443;29;20056;-79
2024/02/18 06:47:52;;;;;;;14.23;9.05;;;;;;;6.79;75.19;98160.38;4914524;29;20044;-78
2024/02/18 06:50:20;;;;;;;15.43;8.75;;;;;;;6.79;75.28;98173.34;4929429;29;20035;-78
2024/02/18 06:52:47;;;;;;;14.93;9.23;;;;;;;6.81;75.75;98163.69;4936030;29;20083;-79
2024/02/18 06:55:16;;;;;;;13.93;8.80;;;;;;;6.84;76.05;98168.63;4919675;29;20140;-78
2024/02/18 06:57:45;;;;;;;11.95;8.32;;;;;;;6.90;76.35;98170.75;4919996;29;20087;-80
2024/02/18 07:00:13;;;;;;;14.48;9.18;;;;;;;6.93;76.02;98157.56;4926015;29;20072;-78
2024/02/18 07:02:41;;;;;;;16.02;9.65;;;;;;;6.87;75.29;98152.84;4938166;29;20059;-79
2024/02/18 07:05:09;;;;;;;15.50;10.10;;;;;;;6.83;75.80;98153.19;4938317;29;20052;-77
2024/02/18 07:07:40;;;;;;;12.68;8.35;;;;;;;6.81;75.42;98155.91;4938554;29;20036;-81
2024/02/18 07:10:08;;;;;;;14.15;9.02;;;;;;;6.76;75.67;98156.28;4919395;29;20052;-82
2024/02/18 07:12:37;;;;;;;12.57;8.50;;;;;;;6.81;75.99;98158.50;4933790;29;20042;-81
2024/02/18 07:17:47;;;;;;;14.07;8.93;;;;;;;7.14;76.02;98154.19;5019939;23;20040;-81
2024/02/18 07:20:16;;;;;;;13.60;8.88;;;;;;;7.27;75.50;98154.88;5065229;23;21065;-81
2024/02/18 07:22:48;;;;;;;14.00;9.68;;;;;;;7.39;75.47;98153.91;5313590;23;20048;-81
2024/02/18 07:25:23;;;;;;;13.90;9.27;;;;;;;7.50;75.07;98159.97;5153764;23;20129;-81
2024/02/18 07:27:56;;;;;;;18.13;10.27;;;;;;;7.62;75.45;98159.00;4942475;29;20032;-81
2024/02/18 07:30:25;;;;;;;;;;;;;;;7.81;76.14;98153.13;4942932;29;20040;-81
2024/02/18 07:32:57;;;;;;;13.73;9.32;;;;;;;7.97;74.48;98153.50;4942516;29;19931;-81
2024/02/18 07:35:26;;;;;;;14.13;9.80;;;;;;;8.12;74.53;98154.00;4940873;29;20043;-81
2024/02/18 07:37:56;;;;;;;14.93;9.43;;;;;;;8.31;74.84;98149.84;4941302;29;20032;-81
2024/02/18 07:40:25;;;;;;;13.43;9.43;;;;;;;8.47;74.63;98142.44;4941417;29;20040;-81
2024/02/18 07:42:57;;;;;;;17.23;9.98;;;;;;;8.55;73.42;98142.63;5344877;23;20060;-81
2024/02/18 07:45:26;;;;;;;16.88;10.38;;;;;;;8.61;73.15;98136.88;5315314;23;20056;-81
2024/02/18 07:47:57;;;;;;;13.38;9.57;;;;;;;8.76;73.41;98137.34;4937102;29;20036;-81
2024/02/18 07:50:26;;;;;;;12.90;9.05;;;;;;;8.95;72.67;98133.97;4942105;29;20032;-81
2024/02/18 07:52:54;;;;;;;15.88;10.43;;;;;;;9.07;72.01;98130.31;4941954;29;20044;-82
2024/02/18 07:55:23;;;;;;;15.70;9.50;;;;;;;9.19;71.38;98130.19;5039848;23;20043;-81
2024/02/18 07:57:51;;;;;;;15.18;9.68;;;;;;;9.23;70.59;98128.97;4989989;28;20063;-80
2024/02/18 08:00:22;;;;;;;15.35;9.85;;;;;;;9.30;70.13;98126.63;4969639;28;20042;-81
2024/02/18 08:02:51;;;;;;;12.50;9.30;;;;;;;9.35;70.47;98127.84;4973844;28;20027;-81
2024/02/18 08:08:13;;;;;;;21.52;11.63;;;;;;;9.54;69.40;98121.03;5294238;23;20063;-81
2024/02/18 08:14:02;;;;;;;13.23;9.27;;;;;;;9.83;69.16;98121.81;5611881;23;21550;-81
2024/02/18 08:16:32;;;;;;;14.35;9.45;;;;;;;9.98;69.23;98119.59;4934652;29;20052;-81
2024/02/18 09:03:12;;;;;;;15.68;10.93;;;;;;;13.39;60.36;98079.97;5997105;23;20023;-79
2024/02/18 09:35:33;;;;;;;10.20;6.30;;;;;;;14.69;55.87;98057.06;5451279;23;20040;-80
2024/02/18 09:38:08;;;;;;;9.48;6.60;;;;;;;14.70;57.71;98042.16;4924273;29;20069;-80
2024/02/18 09:40:37;;;;;;;8.52;6.32;;;;;;;14.74;54.57;98051.31;4906006;29;20069;-81
2024/02/18 09:45:48;;;;;;;8.48;5.78;;;;;;;14.82;54.02;98038.13;5493938;23;20251;-80
2024/02/18 09:48:22;;;;;;;10.93;6.20;;;;;;;14.89;52.77;98035.63;5029340;23;20040;-81
2024/02/18 09:50:53;;;;;;;10.05;6.95;;;;;;;14.97;51.57;98035.56;4918756;29;20059;-81
2024/02/18 09:53:21;;;;;;;11.93;6.97;;;;;;;15.07;52.29;98038.81;4914759;29;20081;-81
2024/02/18 09:55:50;;;;;;;21.90;14.15;;;;;;;15.17;51.13;98031.47;4912227;29;20088;-82
2024/02/18 10:01:20;;;;;;;6.93;4.80;;;;;;;15.26;49.17;98032.22;4907614;29;20053;-80
2024/02/18 10:03:48;;;;;;;4.85;3.28;;;;;;;15.27;50.73;98025.19;4892548;29;20049;-81
2024/02/18 10:06:23;;;;;;;3.80;3.22;;;;;;;15.35;49.73;98023.31;4942274;23;20060;-80
2024/02/18 10:22:14;;;;;;;2.97;2.30;;;;;;;15.53;47.08;98001.94;3100641;27;20048;-78
2024/02/18 10:24:45;;;;;;;3.15;2.15;;;;;;;15.65;45.29;97995.25;5132771;23;20036;-81
2024/02/18 10:27:15;;;;;;;3.53;1.85;;;;;;;15.79;47.10;97992.84;4957283;29;20059;-81
2024/02/18 10:29:43;;;;;;;3.38;1.90;;;;;;;15.80;48.17;97984.75;4938901;29;20432;-79
2024/02/18 10:32:11;;;;;;;3.03;2.08;;;;;;;15.90;47.45;97968.72;4924971;29;20048;-79
2024/02/18 10:34:38;;;;;;;3.35;2.22;;;;;;;15.99;44.76;97966.81;4943000;29;20047;-79
2024/02/18 10:37:09;;;;;;;2.80;1.98;;;;;;;16.03;43.66;97968.09;4951167;29;20055;-79
2024/02/18 10:39:43;;;;;;;4.30;2.28;;;;;;;16.13;42.43;97973.06;4930293;23;20052;-78
2024/02/18 10:42:12;;;;;;;2.55;2.03;;;;;;;16.19;43.17;97974.97;4905616;29;20505;-81
2024/02/18 10:44:42;;;;;;;3.13;2.20;;;;;;;16.32;43.15;97972.47;4904606;29;20402;-79
2024/02/18 10:47:15;;;;;;;3.20;2.03;;;;;;;16.41;42.94;97970.56;4910965;29;20044;-84
2024/02/18 10:49:45;;;;;;;;;;;;;;;16.51;43.86;97960.56;4907179;29;20477;-80
2024/02/18 10:52:20;;;;;;;2.45;2.10;;;;;;;16.58;41.96;97956.16;4906799;29;20369;-82
2024/02/18 10:54:58;;;;;;;5.10;3.55;;;;;;;16.62;44.11;97956.63;4906195;29;20053;-80
2024/02/18 10:57:27;;;;;;;2.78;1.77;;;;;;;16.65;42.61;97959.69;4890454;29;20088;-80
2024/02/18 10:59:59;;;;;;;2.75;2.45;;;;;;;16.73;41.38;97958.75;4900098;29;20060;-82
2024/02/18 11:02:31;;;;;;;2.35;2.08;;;;;;;16.75;42.33;97950.63;4906249;29;20052;-79
2024/02/18 11:04:59;;;;;;;1.90;1.50;;;;;;;16.86;40.79;97950.19;4898818;29;20175;-78
2024/02/18 11:07:28;;;;;;;1.92;1.60;;;;;;;16.84;43.36;97946.94;4887501;29;20045;-81
2024/02/18 11:09:59;;;;;;;2.05;1.85;;;;;;;16.90;39.84;97938.25;4899916;29;20520;-78
2024/02/18 11:12:28;;;;;;;1.55;1.45;;;;;;;17.01;40.80;97934.28;4905327;29;20048;-78
2024/02/18 11:14:58;;;;;;;1.50;1.40;;;;;;;17.11;42.79;97932.16;4887380;29;20053;-78
2024/02/18 11:17:26;;;;;;;1.55;1.45;;;;;;;17.25;43.33;97935.69;4903664;29;20095;-80
2024/02/18 11:19:55;;;;;;;3.30;1.90;;;;;;;17.43;42.46;97919.41;4910517;29;20048;-85
2024/02/18 11:22:23;;;;;;;1.67;1.45;;;;;;;17.45;39.63;97920.84;4909794;29;20576;-80
2024/02/18 11:24:52;;;;;;;3.35;1.85;;;;;;;17.37;41.12;97909.63;4909660;29;20461;-80
2024/02/18 11:27:21;;;;;;;1.70;1.60;;;;;;;17.23;41.51;97917.44;4909819;29;20052;-79
2024/02/18 11:29:51;;;;;;;2.00;1.80;;;;;;;17.18;40.30;97911.09;4909074;29;20496;-79
2024/02/18 11:32:19;;;;;;;2.15;1.73;;;;;;;17.15;41.04;97903.59;4907539;29;20052;-82
2024/02/18 11:34:47;;;;;;;2.42;2.15;;;;;;;17.17;41.28;97897.13;4908474;29;20103;-81
2024/02/18 11:37:28;;;;;;;3.05;2.22;;;;;;;17.11;39.82;97892.59;4907657;29;20528;-79
2024/02/18 11:39:58;;;;;;;2.22;2.03;;;;;;;17.06;40.51;97892.38;4906857;29;20142;-79
2024/02/18 11:42:28;;;;;;;2.80;2.38;;;;;;;17.08;40.97;97890.38;4906944;29;20485;-79
2024/02/18 11:45:12;;;;;;;3.05;2.58;;;;;;;17.06;40.61;97895.00;4906186;29;20052;-79
2024/02/18 11:47:45;;;;;;;2.45;2.17;;;;;;;16.88;42.40;97882.31;4906708;29;20052;-81
2024/02/18 11:50:13;;;;;;;2.22;2.00;;;;;;;16.76;40.85;97879.31;4906009;29;20144;-79
2024/02/18 11:52:41;;;;;;;2.60;2.40;;;;;;;16.73;41.18;97874.44;4905254;29;20076;-79
2024/02/18 11:55:15;;;;;;;2.17;1.98;;;;;;;16.75;43.80;97871.59;4905246;29;20112;-82
2024/02/18 11:57:44;;;;;;;2.63;2.08;;;;;;;16.81;40.96;97865.59;4904727;29;20108;-84
2024/02/18 12:00:13;;;;;;;2.00;1.80;;;;;;;16.79;42.67;97857.88;4906098;29;20080;-82
2024/02/18 12:02:50;;;;;;;3.30;2.58;;;;;;;16.83;42.42;97867.03;4907519;29;20049;-82
2024/02/18 12:05:19;;;;;;;3.25;2.42;;;;;;;16.84;42.18;97857.34;4895314;29;20136;-80
2024/02/18 12:07:48;;;;;;;2.60;2.20;;;;;;;16.76;43.50;97845.06;4896575;29;20564;-82
2024/02/18 12:10:17;;;;;;;2.45;1.77;;;;;;;16.72;43.27;97835.91;4906172;29;20048;-78
2024/02/18 12:12:47;;;;;;;5.50;4.95;;;;;;;16.75;42.11;97829.44;4904334;29;20484;-80
2024/02/18 12:15:21;;;;;;;3.85;3.42;;;;;;;16.74;41.32;97833.09;4905849;29;20060;-85
2024/02/18 12:17:52;;;;;;;2.80;2.00;;;;;;;16.78;43.13;97823.81;4904160;29;20520;-83
2024/02/18 12:20:22;;;;;;;2.40;2.20;;;;;;;16.85;43.08;97816.78;4910189;29;20113;-87
2024/02/18 12:22:50;;;;;;;2.13;1.88;;;;;;;16.87;41.38;97810.31;4907834;29;20048;-84
2024/02/18 12:25:20;;;;;;;2.55;1.90;;;;;;;16.80;40.90;97809.47;4908223;29;20053;-82
2024/02/18 12:27:50;;;;;;;3.15;2.13;;;;;;;16.81;40.98;97808.44;4909070;29;20048;-80
2024/02/18 12:30:21;;;;;;;2.30;2.10;;;;;;;16.68;40.37;97797.78;4908862;29;20048;-82
2024/02/18 12:32:49;;;;;;;2.97;2.47;;;;;;;16.41;40.98;97797.56;4907105;29;20112;-79
2024/02/18 12:35:17;;;;;;;2.75;2.40;;;;;;;16.21;40.92;97801.84;4906953;29;20100;-80
2024/02/18 12:37:45;;;;;;;2.60;2.40;;;;;;;16.03;41.62;97795.19;4906466;29;20052;-82
2024/02/18 12:40:15;;;;;;;2.50;2.30;;;;;;;15.90;42.99;97796.88;4906850;29;20087;-80
2024/02/18 12:42:43;;;;;;;2.40;2.20;;;;;;;15.81;41.85;97785.66;4905010;29;20063;-83
2024/02/18 12:45:33;;;;;;;3.72;3.05;;;;;;;15.68;43.95;97785.44;4904636;29;20428;-81
2024/02/18 12:48:06;;;;;;;26.00;16.60;;;;;;;15.66;45.31;97778.56;4903299;29;20552;-86
2024/02/18 12:50:34;;;;;;;5.45;4.40;;;;;;;15.69;43.40;97774.75;4903069;29;20132;-82
2024/02/18 12:53:03;;;;;;;3.20;2.72;;;;;;;15.64;42.76;97775.31;4905338;29;20059;-86
2024/02/18 12:55:34;;;;;;;10.60;4.88;;;;;;;15.54;43.97;97769.50;4903895;29;20491;-85
2024/02/18 12:58:02;;;;;;;5.35;3.22;;;;;;;15.50;43.52;97767.44;4900718;29;20079;-82
2024/02/18 13:00:30;;;;;;;5.53;3.53;;;;;;;15.37;42.97;97757.56;4901543;29;20101;-88
2024/02/18 13:03:03;;;;;;;4.35;3.30;;;;;;;15.32;44.00;97755.50;4900711;29;20128;-83
2024/02/18 13:05:32;;;;;;;3.92;3.03;;;;;;;15.33;43.33;97756.34;4889110;29;20076;-86
2024/02/18 13:08:04;;;;;;;3.55;3.08;;;;;;;15.22;44.46;97754.97;4887320;29;20148;-83
2024/02/18 13:10:32;;;;;;;3.97;2.95;;;;;;;15.11;44.24;97751.00;4900014;29;20490;-80
2024/02/18 13:13:01;;;;;;;3.40;3.10;;;;;;;15.09;43.96;97741.66;4907581;29;20084;-89
2024/02/18 13:15:29;;;;;;;4.13;3.17;;;;;;;15.06;43.57;97739.38;4904870;29;20049;-90
2024/02/18 13:17:56;;;;;;;3.95;2.88;;;;;;;14.96;44.64;97734.41;4904277;29;20071;-84
2024/02/18 13:20:25;;;;;;;3.08;2.78;;;;;;;14.90;45.12;97728.06;4907640;29;20045;-89
2024/02/18 13:22:54;;;;;;;5.22;3.20;;;;;;;14.92;44.87;97722.66;4902333;29;20125;-89
2024/02/18 13:25:22;;;;;;;4.50;2.78;;;;;;;14.97;45.90;97720.28;4909351;29;20064;-87